createdAt,value
2022-10-02T00:01:37.020Z,99265.39
2022-10-02T00:05:50.954Z,99265.38
2022-10-02T00:10:12.600Z,99265.70
2022-10-02T00:14:28.379Z,99273.07
2022-10-02T00:18:40.260Z,99270.83
2022-10-02T00:22:58.043Z,99279.44
2022-10-02T00:27:17.495Z,99281.95
2022-10-02T00:31:45.073Z,99278.02
2022-10-02T00:36:00.327Z,99280.73
2022-10-02T00:40:23.108Z,99284.84
2022-10-02T00:44:45.486Z,99286.03
2022-10-02T00:49:00.469Z,99284.89
2022-10-02T00:53:17.212Z,99288.84
2022-10-02T00:57:42.325Z,99293.33
2022-10-02T01:02:53.454Z,99297.14
2022-10-02T01:06:56.161Z,99295.93
2022-10-02T01:11:02.539Z,99297.74
2022-10-02T01:15:18.558Z,99298.04
2022-10-02T01:19:34.089Z,99303.84
2022-10-02T01:23:39.372Z,99307.54
2022-10-02T01:27:41.913Z,99299.77
2022-10-02T01:31:45.308Z,99299.52
2022-10-02T01:35:50.407Z,99298.86
2022-10-02T01:39:53.637Z,99299.60
2022-10-02T01:44:01.804Z,99302.95
2022-10-02T01:48:29.635Z,99303.19
2022-10-02T01:52:51.290Z,99307.90
2022-10-02T01:57:16.669Z,99305.14
2022-10-02T02:01:24.759Z,99310.27
2022-10-02T02:05:45.933Z,99315.04
2022-10-02T02:10:34.490Z,99324.31
2022-10-02T02:15:11.275Z,99325.11
2022-10-02T02:19:16.604Z,99327.27
2022-10-02T02:23:50.483Z,99328.83
2022-10-02T02:28:18.027Z,99333.82
2022-10-02T02:32:50.316Z,99330.84
2022-10-02T02:37:18.924Z,99341.60
2022-10-02T02:41:29.364Z,99336.92
2022-10-02T02:45:53.362Z,99348.79
2022-10-02T02:50:08.574Z,99351.13
2022-10-02T02:54:17.448Z,99354.55
2022-10-02T02:59:05.211Z,99351.39
2022-10-02T03:03:29.037Z,99356.04
2022-10-02T03:07:31.746Z,99356.92
2022-10-02T03:11:55.480Z,99360.18
2022-10-02T03:16:20.023Z,99359.08
2022-10-02T03:20:45.807Z,99366.55
2022-10-02T03:25:09.786Z,99363.64
2022-10-02T03:29:28.540Z,99358.48
2022-10-02T03:33:37.459Z,99359.27
2022-10-02T03:37:52.420Z,99358.30
2022-10-02T03:41:57.495Z,99349.84
2022-10-02T03:46:07.599Z,99355.45
2022-10-02T03:50:18.763Z,99363.48
2022-10-02T03:54:22.390Z,99362.73
2022-10-02T03:58:25.562Z,99367.80
2022-10-02T04:02:43.109Z,99365.58
2022-10-02T04:07:07.399Z,99363.69
2022-10-02T04:11:23.451Z,99363.90
2022-10-02T04:15:37.113Z,99372.81
2022-10-02T04:19:45.928Z,99368.48
2022-10-02T04:24:02.646Z,99374.02
2022-10-02T04:28:18.495Z,99377.17
2022-10-02T04:32:33.473Z,99381.31
2022-10-02T04:36:46.036Z,99384.97
2022-10-02T04:41:15.413Z,99390.65
2022-10-02T04:45:39.521Z,99388.97
2022-10-02T04:50:09.368Z,99388.95
2022-10-02T04:54:33.753Z,99386.56
2022-10-02T04:58:54.308Z,99386.92
2022-10-02T05:03:26.787Z,99392.31
2022-10-02T05:07:49.979Z,99396.35
2022-10-02T05:12:31.337Z,99399.82
2022-10-02T05:16:34.015Z,99402.50
2022-10-02T05:21:30.682Z,99409.73
2022-10-02T05:25:42.942Z,99409.70
2022-10-02T05:30:13.473Z,99412.44
2022-10-02T05:34:21.280Z,99414.09
2022-10-02T05:38:35.613Z,99415.65
2022-10-02T05:43:22.860Z,99421.81
2022-10-02T05:47:40.953Z,99425.58
2022-10-02T05:51:59.225Z,99424.27
2022-10-02T05:56:27.651Z,99430.61
2022-10-02T06:00:37.486Z,99436.63
2022-10-02T06:04:55.626Z,99436.55
2022-10-02T06:09:26.989Z,99435.87
2022-10-02T06:13:51.921Z,99441.41
2022-10-02T06:18:01.733Z,99437.42
2022-10-02T06:22:55.942Z,99435.35
2022-10-02T06:27:38.289Z,99440.60
2022-10-02T06:31:58.089Z,99438.78
2022-10-02T06:36:34.852Z,99446.79
2022-10-02T06:41:01.310Z,99441.48
2022-10-02T06:45:39.851Z,99452.59
2022-10-02T06:50:34.225Z,99456.05
2022-10-02T06:55:00.666Z,99455.95
2022-10-02T07:10:12.767Z,99475.48
2022-10-02T07:14:59.966Z,99485.38
2022-10-02T07:19:59.857Z,99488.79
2022-10-02T07:24:27.559Z,99488.38
2022-10-02T07:35:15.449Z,99503.11
2022-10-02T07:51:30.454Z,99501.60
2022-10-02T07:55:42.324Z,99507.77
2022-10-02T08:00:18.040Z,99510.90
2022-10-02T08:04:36.703Z,99511.21
2022-10-02T08:08:51.530Z,99513.25
2022-10-02T08:13:22.266Z,99517.39
2022-10-02T08:17:46.795Z,99518.23
2022-10-02T08:22:13.876Z,99515.73
2022-10-02T08:26:35.854Z,99515.06
2022-10-02T08:30:38.809Z,99519.52
2022-10-02T08:34:43.085Z,99519.46
2022-10-02T08:38:54.471Z,99516.81
2022-10-02T08:42:59.765Z,99520.54
2022-10-02T08:47:47.004Z,99523.56
2022-10-02T08:52:22.983Z,99528.33
2022-10-02T08:56:43.606Z,99530.48
2022-10-02T09:01:04.055Z,99536.88
2022-10-02T09:05:43.511Z,99527.31
2022-10-02T09:10:17.503Z,99534.02
2022-10-02T09:15:09.281Z,99536.83
2022-10-02T09:19:43.096Z,99533.36
2022-10-02T09:24:06.667Z,99542.23
2022-10-02T09:28:42.443Z,99543.00
2022-10-02T09:33:16.084Z,99540.44
2022-10-02T09:38:03.768Z,99539.38
2022-10-02T09:42:19.576Z,99542.10
2022-10-02T09:46:46.300Z,99538.13
2022-10-02T09:51:10.004Z,99538.14
2022-10-02T09:55:30.852Z,99534.87
2022-10-02T09:59:50.011Z,99532.21
2022-10-02T10:04:47.841Z,99534.60
2022-10-02T10:09:16.664Z,99526.23
2022-10-02T10:13:21.807Z,99534.42
2022-10-02T10:17:30.211Z,99518.89
2022-10-02T10:21:45.228Z,99511.30
2022-10-02T10:26:09.269Z,99501.80
2022-10-02T10:30:14.305Z,99496.34
2022-10-02T10:34:53.350Z,99498.44
2022-10-02T10:39:37.127Z,99496.58
2022-10-02T10:44:00.646Z,99490.42
2022-10-02T10:48:24.616Z,99489.38
2022-10-02T10:52:29.412Z,99481.16
2022-10-02T10:56:48.750Z,99481.91
2022-10-02T11:00:53.435Z,99480.05
2022-10-02T11:05:32.660Z,99478.98
2022-10-02T11:09:59.651Z,99477.92
2022-10-02T11:14:30.761Z,99474.40
2022-10-02T11:19:21.520Z,99494.10
2022-10-02T11:23:35.748Z,99497.84
2022-10-02T11:27:43.565Z,99494.19
2022-10-02T11:32:01.990Z,99492.65
2022-10-02T11:36:26.273Z,99484.77
2022-10-02T11:40:48.925Z,99488.20
2022-10-02T11:45:12.335Z,99493.77
2022-10-02T11:49:39.669Z,99492.08
2022-10-02T11:54:19.072Z,99495.12
2022-10-02T11:58:56.351Z,99491.98
2022-10-02T12:03:01.309Z,99491.54
2022-10-02T12:07:13.600Z,99496.82
2022-10-02T12:11:52.113Z,99491.08
2022-10-02T12:16:09.984Z,99489.14
2022-10-02T12:20:36.129Z,99487.72
2022-10-02T12:25:33.133Z,99488.11
2022-10-02T12:30:00.839Z,99488.45
2022-10-02T12:34:09.084Z,99483.41
2022-10-02T12:38:38.384Z,99475.11
2022-10-02T12:43:16.196Z,99483.54
2022-10-02T12:47:35.580Z,99484.66
2022-10-02T12:51:46.478Z,99485.02
2022-10-02T12:56:22.573Z,99490.31
2022-10-02T13:00:29.009Z,99481.45
2022-10-02T13:04:43.361Z,99479.92
2022-10-02T13:09:04.781Z,99487.20
2022-10-02T13:13:24.528Z,99483.67
2022-10-02T13:17:45.787Z,99472.23
2022-10-02T13:22:13.701Z,99469.14
2022-10-02T13:26:25.432Z,99473.06
2022-10-02T13:30:33.185Z,99471.89
2022-10-02T13:34:50.636Z,99470.36
2022-10-02T13:38:58.998Z,99465.15
2022-10-02T13:43:34.113Z,99468.47
2022-10-02T13:48:07.432Z,99468.22
2022-10-02T13:52:22.513Z,99471.27
2022-10-02T13:56:38.397Z,99471.48
2022-10-02T14:00:46.695Z,99469.81
2022-10-02T14:04:48.585Z,99474.46
2022-10-02T14:09:02.613Z,99472.94
2022-10-02T14:13:41.934Z,99475.27
2022-10-02T14:18:07.692Z,99470.67
2022-10-02T14:22:28.149Z,99468.37
2022-10-02T14:26:55.748Z,99464.38
2022-10-02T14:31:26.069Z,99463.60
2022-10-02T14:35:43.400Z,99462.23
2022-10-02T14:39:45.415Z,99461.34
2022-10-02T14:44:03.074Z,99456.58
2022-10-02T14:48:44.786Z,99458.17
2022-10-02T14:53:28.919Z,99456.90
2022-10-02T14:57:53.192Z,99462.35
2022-10-02T15:02:10.268Z,99461.83
2022-10-02T15:06:31.109Z,99462.64
2022-10-02T15:10:38.160Z,99458.98
2022-10-02T15:15:08.741Z,99462.02
2022-10-02T15:19:16.074Z,99458.41
2022-10-02T15:23:40.952Z,99447.59
2022-10-02T15:28:31.309Z,99454.14
2022-10-02T15:32:39.905Z,99451.27
2022-10-02T15:36:48.868Z,99446.71
2022-10-02T15:41:12.754Z,99441.57
2022-10-02T15:45:42.438Z,99444.02
2022-10-02T15:50:10.094Z,99447.14
2022-10-02T15:54:14.742Z,99448.98
2022-10-02T15:58:35.260Z,99451.02
2022-10-02T16:02:59.697Z,99448.95
2022-10-02T16:07:36.742Z,99451.52
2022-10-02T16:11:41.755Z,99447.21
2022-10-02T16:16:23.899Z,99449.36
2022-10-02T16:20:47.926Z,99440.80
2022-10-02T16:25:34.770Z,99446.56
2022-10-02T16:30:13.551Z,99448.22
2022-10-02T16:35:01.030Z,99452.20
2022-10-02T16:39:21.549Z,99453.65
2022-10-02T16:43:42.780Z,99456.80
2022-10-02T16:47:53.811Z,99461.46
2022-10-02T16:52:03.115Z,99460.82
2022-10-02T16:56:15.922Z,99457.94
2022-10-02T17:00:31.809Z,99455.30
2022-10-02T17:04:45.837Z,99446.73
2022-10-02T17:08:53.402Z,99443.70
2022-10-02T17:13:13.479Z,99449.96
2022-10-02T17:17:41.544Z,99450.66
2022-10-02T17:22:11.560Z,99458.32
2022-10-02T17:26:40.657Z,99461.86
2022-10-02T17:30:51.830Z,99456.45
2022-10-02T17:34:58.442Z,99453.60
2022-10-02T17:39:22.544Z,99451.48
2022-10-02T17:43:42.111Z,99451.51
2022-10-02T17:48:14.927Z,99443.91
2022-10-02T17:53:01.632Z,99440.73
2022-10-02T17:57:43.652Z,99435.52
2022-10-02T18:02:19.596Z,99429.55
2022-10-02T18:06:37.560Z,99422.39
2022-10-02T18:11:06.762Z,99421.98
2022-10-02T18:15:27.254Z,99420.23
2022-10-02T18:19:54.898Z,99420.46
2022-10-02T18:24:26.843Z,99419.08
2022-10-02T18:28:43.482Z,99421.44
2022-10-02T18:33:16.683Z,99424.44
2022-10-02T18:37:37.394Z,99423.14
2022-10-02T18:42:24.365Z,99413.41
2022-10-02T18:46:51.316Z,99413.88
2022-10-02T18:51:11.372Z,99418.02
2022-10-02T18:55:28.356Z,99422.47
2022-10-02T18:59:36.839Z,99424.58
2022-10-02T19:03:55.235Z,99419.54
2022-10-02T19:08:03.244Z,99417.23
2022-10-02T19:12:23.621Z,99417.90
2022-10-02T19:16:26.659Z,99414.70
2022-10-02T19:20:50.454Z,99417.60
2022-10-02T19:24:56.961Z,99408.71
2022-10-02T19:29:05.201Z,99409.90
2022-10-02T19:33:08.340Z,99407.66
2022-10-02T19:37:15.883Z,99405.64
2022-10-02T19:41:19.048Z,99397.24
2022-10-02T19:45:26.409Z,99395.16
2022-10-02T19:49:37.889Z,99394.91
2022-10-02T19:53:55.499Z,99394.83
2022-10-02T19:58:05.908Z,99394.48
2022-10-02T20:02:29.548Z,99390.37
2022-10-02T20:06:39.322Z,99394.54
2022-10-02T20:11:22.937Z,99390.01
2022-10-02T20:16:16.627Z,99395.11
2022-10-02T20:20:20.263Z,99394.03
2022-10-02T20:24:45.488Z,99386.85
2022-10-02T20:28:56.949Z,99389.96
2022-10-02T20:33:09.253Z,99393.91
2022-10-02T20:37:18.444Z,99395.29
2022-10-02T20:41:27.803Z,99394.89
2022-10-02T20:45:40.008Z,99400.75
2022-10-02T20:50:00.479Z,99400.56
2022-10-02T20:54:23.079Z,99395.96
2022-10-02T20:58:40.153Z,99392.54
2022-10-02T21:03:06.837Z,99389.25
2022-10-02T21:07:39.600Z,99391.81
2022-10-02T21:12:18.634Z,99386.84
2022-10-02T21:17:05.905Z,99388.63
2022-10-02T21:21:53.794Z,99390.03
2022-10-02T21:26:04.908Z,99386.80
2022-10-02T21:30:15.980Z,99391.49
2022-10-02T21:34:23.686Z,99389.82
2022-10-02T21:38:51.635Z,99392.72
2022-10-02T21:43:25.717Z,99388.77
2022-10-02T21:47:54.696Z,99390.02
2022-10-02T21:52:15.141Z,99386.36
2022-10-02T21:56:52.401Z,99382.73
2022-10-02T22:01:06.109Z,99380.45
2022-10-02T22:05:25.412Z,99381.48
2022-10-02T22:09:44.210Z,99376.40
2022-10-02T22:13:48.796Z,99380.46
2022-10-02T22:18:33.690Z,99380.82
2022-10-02T22:22:54.230Z,99386.36
2022-10-02T22:27:14.382Z,99384.02
2022-10-02T22:31:29.846Z,99375.31
2022-10-02T22:36:09.175Z,99376.23
2022-10-02T22:40:23.219Z,99375.43
2022-10-02T22:44:30.034Z,99374.55
2022-10-02T22:48:45.696Z,99376.73
2022-10-02T22:53:04.501Z,99380.30
2022-10-02T22:57:43.177Z,99384.59
2022-10-02T23:01:54.617Z,99389.46
2022-10-02T23:06:05.971Z,99395.80
2022-10-02T23:10:10.810Z,99393.77
2022-10-02T23:14:22.670Z,99390.95
2022-10-02T23:18:48.061Z,99396.48
2022-10-02T23:22:59.088Z,99399.89
2022-10-02T23:27:23.591Z,99400.58
2022-10-02T23:31:31.630Z,99399.27
2022-10-02T23:35:45.204Z,99401.08
2022-10-02T23:39:54.569Z,99396.48
2022-10-02T23:44:02.729Z,99392.89
2022-10-02T23:48:11.171Z,99393.10
2022-10-02T23:52:34.629Z,99393.71
2022-10-02T23:56:53.254Z,99405.48
